sensor_id;sensor_type;location;lat;lon;timestamp;temperature;humidity
23301;DHT22;11819;51.394;12.340;2022-08-21T00:01:04;19.60;94.00
23301;DHT22;11819;51.394;12.340;2022-08-21T00:03:31;19.70;94.00
23301;DHT22;11819;51.394;12.340;2022-08-21T00:05:57;19.60;94.00
23301;DHT22;11819;51.394;12.340;2022-08-21T00:08:23;19.70;93.90
23301;DHT22;11819;51.394;12.340;2022-08-21T00:10:49;19.70;93.90
23301;DHT22;11819;51.394;12.340;2022-08-21T00:13:16;19.70;93.90
23301;DHT22;11819;51.394;12.340;2022-08-21T00:15:43;19.60;93.80
23301;DHT22;11819;51.394;12.340;2022-08-21T00:18:09;19.60;93.80
23301;DHT22;11819;51.394;12.340;2022-08-21T00:20:37;19.60;93.80
23301;DHT22;11819;51.394;12.340;2022-08-21T00:23:04;19.60;93.80
23301;DHT22;11819;51.394;12.340;2022-08-21T00:25:30;19.60;93.80
23301;DHT22;11819;51.394;12.340;2022-08-21T00:27:56;19.50;93.60
23301;DHT22;11819;51.394;12.340;2022-08-21T00:30:24;19.50;93.60
23301;DHT22;11819;51.394;12.340;2022-08-21T00:32:51;19.50;93.80
23301;DHT22;11819;51.394;12.340;2022-08-21T00:35:21;19.40;93.70
23301;DHT22;11819;51.394;12.340;2022-08-21T00:37:47;19.40;93.70
23301;DHT22;11819;51.394;12.340;2022-08-21T00:40:16;19.40;93.70
23301;DHT22;11819;51.394;12.340;2022-08-21T00:42:42;19.40;93.70
23301;DHT22;11819;51.394;12.340;2022-08-21T00:45:09;19.40;93.70
23301;DHT22;11819;51.394;12.340;2022-08-21T00:47:35;19.50;93.70
23301;DHT22;11819;51.394;12.340;2022-08-21T00:50:02;19.50;93.70
23301;DHT22;11819;51.394;12.340;2022-08-21T00:52:30;19.50;93.60
23301;DHT22;11819;51.394;12.340;2022-08-21T00:54:57;19.50;93.60
23301;DHT22;11819;51.394;12.340;2022-08-21T00:57:30;19.50;93.60
23301;DHT22;11819;51.394;12.340;2022-08-21T00:59:58;19.50;93.50
23301;DHT22;11819;51.394;12.340;2022-08-21T01:02:25;19.50;93.50
23301;DHT22;11819;51.394;12.340;2022-08-21T01:04:51;19.40;93.50
23301;DHT22;11819;51.394;12.340;2022-08-21T01:07:17;19.40;93.50
23301;DHT22;11819;51.394;12.340;2022-08-21T01:09:45;19.40;93.50
23301;DHT22;11819;51.394;12.340;2022-08-21T01:12:11;19.40;93.50
23301;DHT22;11819;51.394;12.340;2022-08-21T01:14:38;19.30;93.50
23301;DHT22;11819;51.394;12.340;2022-08-21T01:17:05;19.30;93.60
23301;DHT22;11819;51.394;12.340;2022-08-21T01:19:31;19.30;93.70
23301;DHT22;11819;51.394;12.340;2022-08-21T01:21:57;19.30;93.70
23301;DHT22;11819;51.394;12.340;2022-08-21T01:24:22;19.30;93.70
23301;DHT22;11819;51.394;12.340;2022-08-21T01:26:49;19.30;93.70
23301;DHT22;11819;51.394;12.340;2022-08-21T01:29:48;19.30;93.70
23301;DHT22;11819;51.394;12.340;2022-08-21T01:32:17;19.40;93.70
23301;DHT22;11819;51.394;12.340;2022-08-21T01:34:45;19.30;93.60
23301;DHT22;11819;51.394;12.340;2022-08-21T01:37:11;19.30;93.60
23301;DHT22;11819;51.394;12.340;2022-08-21T01:39:38;19.30;93.70
23301;DHT22;11819;51.394;12.340;2022-08-21T01:42:05;19.30;93.80
23301;DHT22;11819;51.394;12.340;2022-08-21T01:44:31;19.30;93.80
23301;DHT22;11819;51.394;12.340;2022-08-21T01:46:59;19.30;93.80
23301;DHT22;11819;51.394;12.340;2022-08-21T01:49:25;19.20;93.70
23301;DHT22;11819;51.394;12.340;2022-08-21T01:51:50;19.30;93.80
23301;DHT22;11819;51.394;12.340;2022-08-21T01:54:17;19.30;93.80
23301;DHT22;11819;51.394;12.340;2022-08-21T01:56:45;19.30;93.80
23301;DHT22;11819;51.394;12.340;2022-08-21T01:59:11;19.30;93.80
23301;DHT22;11819;51.394;12.340;2022-08-21T02:01:37;19.30;93.70
23301;DHT22;11819;51.394;12.340;2022-08-21T02:04:05;19.30;93.70
23301;DHT22;11819;51.394;12.340;2022-08-21T02:06:32;19.30;93.70
23301;DHT22;11819;51.394;12.340;2022-08-21T02:08:59;19.30;93.70
23301;DHT22;11819;51.394;12.340;2022-08-21T02:11:25;19.20;93.60
23301;DHT22;11819;51.394;12.340;2022-08-21T02:13:50;19.20;93.70
23301;DHT22;11819;51.394;12.340;2022-08-21T02:16:16;19.20;93.70
23301;DHT22;11819;51.394;12.340;2022-08-21T02:18:42;19.20;93.70
23301;DHT22;11819;51.394;12.340;2022-08-21T02:21:08;19.20;93.60
23301;DHT22;11819;51.394;12.340;2022-08-21T02:23:34;19.20;93.70
23301;DHT22;11819;51.394;12.340;2022-08-21T02:26:01;19.20;93.60
23301;DHT22;11819;51.394;12.340;2022-08-21T02:28:27;19.20;93.60
23301;DHT22;11819;51.394;12.340;2022-08-21T02:30:55;19.20;93.70
23301;DHT22;11819;51.394;12.340;2022-08-21T02:33:21;19.20;93.60
23301;DHT22;11819;51.394;12.340;2022-08-21T02:35:48;19.10;93.50
23301;DHT22;11819;51.394;12.340;2022-08-21T02:38:19;19.10;93.50
23301;DHT22;11819;51.394;12.340;2022-08-21T02:40:47;19.10;93.50
23301;DHT22;11819;51.394;12.340;2022-08-21T02:43:15;19.10;93.90
23301;DHT22;11819;51.394;12.340;2022-08-21T02:45:42;19.10;93.50
23301;DHT22;11819;51.394;12.340;2022-08-21T02:48:10;19.10;93.50
23301;DHT22;11819;51.394;12.340;2022-08-21T02:50:39;19.10;93.50
23301;DHT22;11819;51.394;12.340;2022-08-21T02:53:07;19.10;93.40
23301;DHT22;11819;51.394;12.340;2022-08-21T02:55:35;19.10;93.50
23301;DHT22;11819;51.394;12.340;2022-08-21T02:58:02;19.00;93.40
23301;DHT22;11819;51.394;12.340;2022-08-21T03:00:30;19.00;93.40
23301;DHT22;11819;51.394;12.340;2022-08-21T03:02:58;19.00;93.40
23301;DHT22;11819;51.394;12.340;2022-08-21T03:05:25;19.00;93.40
23301;DHT22;11819;51.394;12.340;2022-08-21T03:07:51;19.00;93.40
23301;DHT22;11819;51.394;12.340;2022-08-21T03:10:19;19.00;93.40
23301;DHT22;11819;51.394;12.340;2022-08-21T03:12:46;19.00;93.30
23301;DHT22;11819;51.394;12.340;2022-08-21T03:15:14;19.00;93.30
23301;DHT22;11819;51.394;12.340;2022-08-21T03:17:40;19.00;93.20
23301;DHT22;11819;51.394;12.340;2022-08-21T03:20:07;19.00;93.10
23301;DHT22;11819;51.394;12.340;2022-08-21T03:22:34;19.00;93.10
23301;DHT22;11819;51.394;12.340;2022-08-21T03:24:59;19.00;93.00
23301;DHT22;11819;51.394;12.340;2022-08-21T03:27:27;19.00;93.00
23301;DHT22;11819;51.394;12.340;2022-08-21T03:29:54;18.90;92.90
23301;DHT22;11819;51.394;12.340;2022-08-21T03:32:20;18.90;92.90
23301;DHT22;11819;51.394;12.340;2022-08-21T03:34:46;18.90;92.80
23301;DHT22;11819;51.394;12.340;2022-08-21T03:37:12;18.90;92.70
23301;DHT22;11819;51.394;12.340;2022-08-21T03:39:38;18.90;92.70
23301;DHT22;11819;51.394;12.340;2022-08-21T03:42:04;18.80;92.60
23301;DHT22;11819;51.394;12.340;2022-08-21T03:44:30;18.80;92.60
23301;DHT22;11819;51.394;12.340;2022-08-21T03:46:57;18.80;92.60
23301;DHT22;11819;51.394;12.340;2022-08-21T03:49:24;18.80;92.60
23301;DHT22;11819;51.394;12.340;2022-08-21T03:51:50;18.80;92.50
23301;DHT22;11819;51.394;12.340;2022-08-21T03:54:15;18.80;92.50
23301;DHT22;11819;51.394;12.340;2022-08-21T03:56:41;18.80;92.50
23301;DHT22;11819;51.394;12.340;2022-08-21T03:59:07;18.80;92.40
23301;DHT22;11819;51.394;12.340;2022-08-21T04:01:33;18.80;92.30
23301;DHT22;11819;51.394;12.340;2022-08-21T04:03:59;18.70;92.20
23301;DHT22;11819;51.394;12.340;2022-08-21T04:06:24;18.70;92.20
23301;DHT22;11819;51.394;12.340;2022-08-21T04:08:51;18.70;92.20
23301;DHT22;11819;51.394;12.340;2022-08-21T04:11:16;18.60;92.10
23301;DHT22;11819;51.394;12.340;2022-08-21T04:13:42;18.60;92.10
23301;DHT22;11819;51.394;12.340;2022-08-21T04:16:08;18.60;92.10
23301;DHT22;11819;51.394;12.340;2022-08-21T04:18:34;18.60;92.10
23301;DHT22;11819;51.394;12.340;2022-08-21T04:21:02;18.60;92.10
23301;DHT22;11819;51.394;12.340;2022-08-21T04:23:28;18.60;92.10
23301;DHT22;11819;51.394;12.340;2022-08-21T04:25:54;18.60;92.10
23301;DHT22;11819;51.394;12.340;2022-08-21T04:28:22;18.60;92.10
23301;DHT22;11819;51.394;12.340;2022-08-21T04:30:48;18.60;92.10
23301;DHT22;11819;51.394;12.340;2022-08-21T04:33:14;18.60;92.10
23301;DHT22;11819;51.394;12.340;2022-08-21T04:35:39;18.60;92.10
23301;DHT22;11819;51.394;12.340;2022-08-21T04:38:05;18.60;92.10
23301;DHT22;11819;51.394;12.340;2022-08-21T04:40:31;18.60;92.10
23301;DHT22;11819;51.394;12.340;2022-08-21T04:43:02;18.60;92.00
23301;DHT22;11819;51.394;12.340;2022-08-21T04:45:30;18.60;91.90
23301;DHT22;11819;51.394;12.340;2022-08-21T04:47:58;18.60;91.90
23301;DHT22;11819;51.394;12.340;2022-08-21T04:50:30;18.60;91.90
23301;DHT22;11819;51.394;12.340;2022-08-21T04:53:05;18.60;91.80
23301;DHT22;11819;51.394;12.340;2022-08-21T04:55:31;18.60;91.80
23301;DHT22;11819;51.394;12.340;2022-08-21T04:57:57;18.60;91.70
23301;DHT22;11819;51.394;12.340;2022-08-21T05:00:24;18.60;91.70
23301;DHT22;11819;51.394;12.340;2022-08-21T05:02:51;18.60;91.70
23301;DHT22;11819;51.394;12.340;2022-08-21T05:05:22;18.60;91.70
23301;DHT22;11819;51.394;12.340;2022-08-21T05:07:48;18.60;91.70
23301;DHT22;11819;51.394;12.340;2022-08-21T05:10:14;18.50;91.60
23301;DHT22;11819;51.394;12.340;2022-08-21T05:12:41;18.50;91.60
23301;DHT22;11819;51.394;12.340;2022-08-21T05:15:08;18.50;91.60
23301;DHT22;11819;51.394;12.340;2022-08-21T05:17:33;18.50;91.60
23301;DHT22;11819;51.394;12.340;2022-08-21T05:19:59;18.50;91.60
23301;DHT22;11819;51.394;12.340;2022-08-21T05:22:25;18.50;91.60
23301;DHT22;11819;51.394;12.340;2022-08-21T05:24:51;18.50;91.50
23301;DHT22;11819;51.394;12.340;2022-08-21T05:27:17;18.50;91.50
23301;DHT22;11819;51.394;12.340;2022-08-21T05:29:43;18.40;91.40
23301;DHT22;11819;51.394;12.340;2022-08-21T05:32:13;18.40;91.50
23301;DHT22;11819;51.394;12.340;2022-08-21T05:34:38;18.40;91.50
23301;DHT22;11819;51.394;12.340;2022-08-21T05:37:05;18.40;91.40
23301;DHT22;11819;51.394;12.340;2022-08-21T05:39:31;18.50;91.50
23301;DHT22;11819;51.394;12.340;2022-08-21T05:41:56;18.50;91.40
23301;DHT22;11819;51.394;12.340;2022-08-21T05:44:22;18.50;91.40
23301;DHT22;11819;51.394;12.340;2022-08-21T05:46:47;18.50;91.30
23301;DHT22;11819;51.394;12.340;2022-08-21T05:49:13;18.50;91.30
23301;DHT22;11819;51.394;12.340;2022-08-21T05:51:42;18.60;91.30
23301;DHT22;11819;51.394;12.340;2022-08-21T05:54:08;18.60;91.20
23301;DHT22;11819;51.394;12.340;2022-08-21T05:56:33;18.60;91.20
23301;DHT22;11819;51.394;12.340;2022-08-21T05:58:59;18.70;91.10
23301;DHT22;11819;51.394;12.340;2022-08-21T06:01:25;18.70;91.00
23301;DHT22;11819;51.394;12.340;2022-08-21T06:03:50;18.70;91.00
23301;DHT22;11819;51.394;12.340;2022-08-21T06:06:16;18.70;91.00
23301;DHT22;11819;51.394;12.340;2022-08-21T06:08:42;18.70;91.00
23301;DHT22;11819;51.394;12.340;2022-08-21T06:11:08;18.70;90.90
23301;DHT22;11819;51.394;12.340;2022-08-21T06:13:35;18.70;90.90
23301;DHT22;11819;51.394;12.340;2022-08-21T06:16:03;18.70;90.80
23301;DHT22;11819;51.394;12.340;2022-08-21T06:18:29;18.60;90.80
23301;DHT22;11819;51.394;12.340;2022-08-21T06:20:54;18.60;90.80
23301;DHT22;11819;51.394;12.340;2022-08-21T06:23:20;18.60;90.90
23301;DHT22;11819;51.394;12.340;2022-08-21T06:25:45;18.60;91.00
23301;DHT22;11819;51.394;12.340;2022-08-21T06:28:11;18.60;90.90
23301;DHT22;11819;51.394;12.340;2022-08-21T06:30:39;18.70;91.00
23301;DHT22;11819;51.394;12.340;2022-08-21T06:33:05;18.70;91.00
23301;DHT22;11819;51.394;12.340;2022-08-21T06:35:32;18.70;90.90
23301;DHT22;11819;51.394;12.340;2022-08-21T06:37:58;18.80;90.90
23301;DHT22;11819;51.394;12.340;2022-08-21T06:40:25;18.70;90.70
23301;DHT22;11819;51.394;12.340;2022-08-21T06:42:51;18.80;90.70
23301;DHT22;11819;51.394;12.340;2022-08-21T06:45:17;18.80;90.70
23301;DHT22;11819;51.394;12.340;2022-08-21T06:47:42;18.80;90.60
23301;DHT22;11819;51.394;12.340;2022-08-21T06:50:09;18.80;90.60
23301;DHT22;11819;51.394;12.340;2022-08-21T06:52:36;18.80;90.50
23301;DHT22;11819;51.394;12.340;2022-08-21T06:55:04;18.80;90.50
23301;DHT22;11819;51.394;12.340;2022-08-21T06:57:31;18.80;90.40
23301;DHT22;11819;51.394;12.340;2022-08-21T06:59:56;18.80;90.40
23301;DHT22;11819;51.394;12.340;2022-08-21T07:02:22;18.80;90.40
23301;DHT22;11819;51.394;12.340;2022-08-21T07:04:48;18.80;90.30
23301;DHT22;11819;51.394;12.340;2022-08-21T07:07:13;18.80;90.70
23301;DHT22;11819;51.394;12.340;2022-08-21T07:09:39;18.90;90.30
23301;DHT22;11819;51.394;12.340;2022-08-21T07:12:05;18.90;90.30
23301;DHT22;11819;51.394;12.340;2022-08-21T07:14:31;19.00;90.30
23301;DHT22;11819;51.394;12.340;2022-08-21T07:16:57;19.00;90.10
23301;DHT22;11819;51.394;12.340;2022-08-21T07:19:22;19.00;90.00
23301;DHT22;11819;51.394;12.340;2022-08-21T07:21:48;19.00;89.70
23301;DHT22;11819;51.394;12.340;2022-08-21T07:24:14;19.00;89.60
23301;DHT22;11819;51.394;12.340;2022-08-21T07:26:40;19.00;89.50
23301;DHT22;11819;51.394;12.340;2022-08-21T07:29:05;19.10;89.40
23301;DHT22;11819;51.394;12.340;2022-08-21T07:31:31;19.10;89.40
23301;DHT22;11819;51.394;12.340;2022-08-21T07:33:57;19.20;89.30
23301;DHT22;11819;51.394;12.340;2022-08-21T07:36:22;19.20;89.10
23301;DHT22;11819;51.394;12.340;2022-08-21T07:38:48;19.30;88.90
23301;DHT22;11819;51.394;12.340;2022-08-21T07:41:22;19.40;88.80
23301;DHT22;11819;51.394;12.340;2022-08-21T07:43:49;19.40;88.70
23301;DHT22;11819;51.394;12.340;2022-08-21T07:46:14;19.50;88.50
23301;DHT22;11819;51.394;12.340;2022-08-21T07:48:41;19.60;88.50
23301;DHT22;11819;51.394;12.340;2022-08-21T07:51:09;19.60;88.20
23301;DHT22;11819;51.394;12.340;2022-08-21T07:53:36;19.60;87.80
23301;DHT22;11819;51.394;12.340;2022-08-21T07:56:02;19.60;87.60
23301;DHT22;11819;51.394;12.340;2022-08-21T07:58:28;19.60;87.40
23301;DHT22;11819;51.394;12.340;2022-08-21T08:00:54;19.60;88.10
23301;DHT22;11819;51.394;12.340;2022-08-21T08:03:20;19.60;87.00
23301;DHT22;11819;51.394;12.340;2022-08-21T08:05:45;19.70;86.80
23301;DHT22;11819;51.394;12.340;2022-08-21T08:08:11;19.70;86.70
23301;DHT22;11819;51.394;12.340;2022-08-21T08:10:38;19.70;86.60
23301;DHT22;11819;51.394;12.340;2022-08-21T08:13:04;19.70;86.30
23301;DHT22;11819;51.394;12.340;2022-08-21T08:15:30;19.80;86.30
23301;DHT22;11819;51.394;12.340;2022-08-21T08:17:56;19.80;85.90
23301;DHT22;11819;51.394;12.340;2022-08-21T08:20:23;19.80;85.70
23301;DHT22;11819;51.394;12.340;2022-08-21T08:22:52;19.80;85.40
23301;DHT22;11819;51.394;12.340;2022-08-21T08:25:19;19.80;84.90
23301;DHT22;11819;51.394;12.340;2022-08-21T08:27:45;19.80;84.70
23301;DHT22;11819;51.394;12.340;2022-08-21T08:30:14;19.80;84.30
23301;DHT22;11819;51.394;12.340;2022-08-21T08:32:40;19.80;84.30
23301;DHT22;11819;51.394;12.340;2022-08-21T08:35:06;19.80;84.10
23301;DHT22;11819;51.394;12.340;2022-08-21T08:37:32;19.80;84.00
23301;DHT22;11819;51.394;12.340;2022-08-21T08:39:59;19.90;83.90
23301;DHT22;11819;51.394;12.340;2022-08-21T08:42:28;20.00;83.70
23301;DHT22;11819;51.394;12.340;2022-08-21T08:45:07;20.10;83.30
23301;DHT22;11819;51.394;12.340;2022-08-21T08:47:37;20.10;83.10
23301;DHT22;11819;51.394;12.340;2022-08-21T08:50:06;20.10;82.90
23301;DHT22;11819;51.394;12.340;2022-08-21T08:52:41;20.10;82.80
23301;DHT22;11819;51.394;12.340;2022-08-21T08:55:14;20.20;82.50
23301;DHT22;11819;51.394;12.340;2022-08-21T08:57:45;20.20;81.80
23301;DHT22;11819;51.394;12.340;2022-08-21T09:00:13;20.20;81.30
23301;DHT22;11819;51.394;12.340;2022-08-21T09:02:41;20.30;81.00
23301;DHT22;11819;51.394;12.340;2022-08-21T09:05:09;20.30;80.90
23301;DHT22;11819;51.394;12.340;2022-08-21T09:07:46;20.40;80.10
23301;DHT22;11819;51.394;12.340;2022-08-21T09:10:20;20.50;79.80
23301;DHT22;11819;51.394;12.340;2022-08-21T09:15:36;20.70;79.20
23301;DHT22;11819;51.394;12.340;2022-08-21T09:18:28;20.80;79.50
23301;DHT22;11819;51.394;12.340;2022-08-21T09:23:50;20.90;77.50
23301;DHT22;11819;51.394;12.340;2022-08-21T09:26:20;21.00;77.10
23301;DHT22;11819;51.394;12.340;2022-08-21T09:28:52;21.00;76.50
23301;DHT22;11819;51.394;12.340;2022-08-21T09:31:25;21.00;75.90
23301;DHT22;11819;51.394;12.340;2022-08-21T09:34:11;21.10;75.70
23301;DHT22;11819;51.394;12.340;2022-08-21T09:36:41;21.10;75.20
23301;DHT22;11819;51.394;12.340;2022-08-21T09:39:11;21.10;75.00
23301;DHT22;11819;51.394;12.340;2022-08-21T09:41:38;21.20;75.00
23301;DHT22;11819;51.394;12.340;2022-08-21T09:44:06;21.20;75.00
23301;DHT22;11819;51.394;12.340;2022-08-21T09:46:32;21.30;74.80
23301;DHT22;11819;51.394;12.340;2022-08-21T09:49:02;21.30;74.50
23301;DHT22;11819;51.394;12.340;2022-08-21T09:51:37;21.40;74.10
23301;DHT22;11819;51.394;12.340;2022-08-21T09:56:55;21.40;73.10
23301;DHT22;11819;51.394;12.340;2022-08-21T09:59:40;21.40;72.80
23301;DHT22;11819;51.394;12.340;2022-08-21T10:02:28;21.50;72.60
23301;DHT22;11819;51.394;12.340;2022-08-21T10:05:01;21.50;72.70
23301;DHT22;11819;51.394;12.340;2022-08-21T10:07:30;21.50;72.50
23301;DHT22;11819;51.394;12.340;2022-08-21T10:10:06;21.50;72.40
23301;DHT22;11819;51.394;12.340;2022-08-21T10:15:46;21.60;72.30
23301;DHT22;11819;51.394;12.340;2022-08-21T10:21:02;21.60;71.60
23301;DHT22;11819;51.394;12.340;2022-08-21T10:26:55;21.50;70.80
23301;DHT22;11819;51.394;12.340;2022-08-21T10:35:14;21.50;71.00
23301;DHT22;11819;51.394;12.340;2022-08-21T10:40:52;21.70;70.80
23301;DHT22;11819;51.394;12.340;2022-08-21T10:43:42;21.80;70.50
23301;DHT22;11819;51.394;12.340;2022-08-21T10:48:58;21.90;69.80
23301;DHT22;11819;51.394;12.340;2022-08-21T10:51:46;21.90;69.30
23301;DHT22;11819;51.394;12.340;2022-08-21T10:54:52;21.90;67.80
23301;DHT22;11819;51.394;12.340;2022-08-21T10:57:31;22.00;67.80
23301;DHT22;11819;51.394;12.340;2022-08-21T11:00:06;22.00;67.70
23301;DHT22;11819;51.394;12.340;2022-08-21T11:02:44;22.00;67.70
23301;DHT22;11819;51.394;12.340;2022-08-21T11:05:27;22.10;67.80
23301;DHT22;11819;51.394;12.340;2022-08-21T11:08:06;22.10;67.80
23301;DHT22;11819;51.394;12.340;2022-08-21T11:10:42;22.10;67.20
23301;DHT22;11819;51.394;12.340;2022-08-21T11:16:00;22.20;67.00
23301;DHT22;11819;51.394;12.340;2022-08-21T11:18:29;22.20;66.60
23301;DHT22;11819;51.394;12.340;2022-08-21T11:23:31;22.30;65.60
23301;DHT22;11819;51.394;12.340;2022-08-21T11:26:04;22.30;65.80
23301;DHT22;11819;51.394;12.340;2022-08-21T11:28:40;22.40;65.70
23301;DHT22;11819;51.394;12.340;2022-08-21T11:31:25;22.50;65.40
23301;DHT22;11819;51.394;12.340;2022-08-21T11:36:41;22.50;64.80
23301;DHT22;11819;51.394;12.340;2022-08-21T11:39:44;22.50;65.10
23301;DHT22;11819;51.394;12.340;2022-08-21T11:42:29;22.60;65.40
23301;DHT22;11819;51.394;12.340;2022-08-21T11:50:28;22.90;65.10
23301;DHT22;11819;51.394;12.340;2022-08-21T11:53:01;23.00;64.60
23301;DHT22;11819;51.394;12.340;2022-08-21T11:55:33;23.00;64.00
23301;DHT22;11819;51.394;12.340;2022-08-21T11:58:16;23.10;64.10
23301;DHT22;11819;51.394;12.340;2022-08-21T12:00:54;23.10;63.30
23301;DHT22;11819;51.394;12.340;2022-08-21T12:03:34;23.10;63.40
23301;DHT22;11819;51.394;12.340;2022-08-21T12:06:07;23.20;63.20
23301;DHT22;11819;51.394;12.340;2022-08-21T12:08:37;23.40;63.40
23301;DHT22;11819;51.394;12.340;2022-08-21T12:11:23;23.60;63.30
23301;DHT22;11819;51.394;12.340;2022-08-21T12:14:12;23.70;63.00
23301;DHT22;11819;51.394;12.340;2022-08-21T12:16:46;23.80;62.70
23301;DHT22;11819;51.394;12.340;2022-08-21T12:19:31;23.90;62.30
23301;DHT22;11819;51.394;12.340;2022-08-21T12:24:42;23.90;61.40
23301;DHT22;11819;51.394;12.340;2022-08-21T12:27:39;23.80;61.20
23301;DHT22;11819;51.394;12.340;2022-08-21T12:32:59;23.80;61.20
23301;DHT22;11819;51.394;12.340;2022-08-21T12:35:31;23.90;60.90
23301;DHT22;11819;51.394;12.340;2022-08-21T12:38:21;24.00;61.00
23301;DHT22;11819;51.394;12.340;2022-08-21T12:41:01;24.00;61.10
23301;DHT22;11819;51.394;12.340;2022-08-21T12:43:34;24.00;61.10
23301;DHT22;11819;51.394;12.340;2022-08-21T12:46:01;24.00;60.90
23301;DHT22;11819;51.394;12.340;2022-08-21T12:48:47;24.00;61.00
23301;DHT22;11819;51.394;12.340;2022-08-21T12:54:08;24.10;61.30
23301;DHT22;11819;51.394;12.340;2022-08-21T12:56:34;24.30;61.10
23301;DHT22;11819;51.394;12.340;2022-08-21T12:59:07;24.50;60.90
23301;DHT22;11819;51.394;12.340;2022-08-21T13:01:47;24.70;60.20
23301;DHT22;11819;51.394;12.340;2022-08-21T13:04:17;25.00;59.60
23301;DHT22;11819;51.394;12.340;2022-08-21T13:06:48;25.30;58.80
23301;DHT22;11819;51.394;12.340;2022-08-21T13:09:18;25.60;58.40
23301;DHT22;11819;51.394;12.340;2022-08-21T13:11:46;25.90;57.70
23301;DHT22;11819;51.394;12.340;2022-08-21T13:14:40;26.10;57.20
23301;DHT22;11819;51.394;12.340;2022-08-21T13:17:09;26.40;56.60
23301;DHT22;11819;51.394;12.340;2022-08-21T13:19:35;26.50;56.10
23301;DHT22;11819;51.394;12.340;2022-08-21T13:22:01;26.40;55.80
23301;DHT22;11819;51.394;12.340;2022-08-21T13:24:34;26.30;55.60
23301;DHT22;11819;51.394;12.340;2022-08-21T13:27:01;26.10;55.30
23301;DHT22;11819;51.394;12.340;2022-08-21T13:29:30;26.00;55.10
23301;DHT22;11819;51.394;12.340;2022-08-21T13:31:59;25.90;55.20
23301;DHT22;11819;51.394;12.340;2022-08-21T13:34:31;25.80;55.20
23301;DHT22;11819;51.394;12.340;2022-08-21T13:37:03;25.70;55.90
23301;DHT22;11819;51.394;12.340;2022-08-21T13:39:29;25.80;55.40
23301;DHT22;11819;51.394;12.340;2022-08-21T13:41:57;26.00;55.10
23301;DHT22;11819;51.394;12.340;2022-08-21T13:44:23;26.20;54.80
23301;DHT22;11819;51.394;12.340;2022-08-21T13:46:52;26.50;55.00
23301;DHT22;11819;51.394;12.340;2022-08-21T13:49:21;26.90;54.80
23301;DHT22;11819;51.394;12.340;2022-08-21T13:51:50;27.30;54.10
23301;DHT22;11819;51.394;12.340;2022-08-21T13:54:25;27.60;53.80
23301;DHT22;11819;51.394;12.340;2022-08-21T13:56:53;28.00;53.90
23301;DHT22;11819;51.394;12.340;2022-08-21T13:59:35;28.40;53.30
23301;DHT22;11819;51.394;12.340;2022-08-21T14:04:38;29.10;52.60
23301;DHT22;11819;51.394;12.340;2022-08-21T14:07:16;29.20;52.10
23301;DHT22;11819;51.394;12.340;2022-08-21T14:09:45;29.20;51.30
23301;DHT22;11819;51.394;12.340;2022-08-21T14:12:26;29.10;51.20
23301;DHT22;11819;51.394;12.340;2022-08-21T14:14:55;29.20;50.70
23301;DHT22;11819;51.394;12.340;2022-08-21T14:17:31;29.30;50.50
23301;DHT22;11819;51.394;12.340;2022-08-21T14:19:57;29.20;49.60
23301;DHT22;11819;51.394;12.340;2022-08-21T14:22:48;29.10;49.60
23301;DHT22;11819;51.394;12.340;2022-08-21T14:27:59;28.70;49.80
23301;DHT22;11819;51.394;12.340;2022-08-21T14:30:31;28.90;50.10
23301;DHT22;11819;51.394;12.340;2022-08-21T14:32:57;29.20;50.00
23301;DHT22;11819;51.394;12.340;2022-08-21T14:35:23;29.50;49.60
23301;DHT22;11819;51.394;12.340;2022-08-21T14:37:49;29.80;49.70
23301;DHT22;11819;51.394;12.340;2022-08-21T14:40:20;30.10;49.50
23301;DHT22;11819;51.394;12.340;2022-08-21T14:42:46;30.30;48.80
23301;DHT22;11819;51.394;12.340;2022-08-21T14:45:29;30.40;48.70
23301;DHT22;11819;51.394;12.340;2022-08-21T14:47:56;30.50;48.50
23301;DHT22;11819;51.394;12.340;2022-08-21T14:50:22;30.60;48.40
23301;DHT22;11819;51.394;12.340;2022-08-21T14:52:48;30.80;48.10
23301;DHT22;11819;51.394;12.340;2022-08-21T14:55:15;31.00;47.40
23301;DHT22;11819;51.394;12.340;2022-08-21T14:57:44;31.10;46.70
23301;DHT22;11819;51.394;12.340;2022-08-21T15:00:13;31.10;46.10
23301;DHT22;11819;51.394;12.340;2022-08-21T15:02:39;31.00;45.70
23301;DHT22;11819;51.394;12.340;2022-08-21T15:05:05;31.10;45.80
23301;DHT22;11819;51.394;12.340;2022-08-21T15:07:35;31.20;45.70
23301;DHT22;11819;51.394;12.340;2022-08-21T15:10:00;31.40;45.50
23301;DHT22;11819;51.394;12.340;2022-08-21T15:12:26;31.60;45.40
23301;DHT22;11819;51.394;12.340;2022-08-21T15:14:52;31.70;45.20
23301;DHT22;11819;51.394;12.340;2022-08-21T15:17:18;31.90;44.90
23301;DHT22;11819;51.394;12.340;2022-08-21T15:19:44;32.00;44.60
23301;DHT22;11819;51.394;12.340;2022-08-21T15:22:10;32.10;44.60
23301;DHT22;11819;51.394;12.340;2022-08-21T15:24:35;32.20;44.50
23301;DHT22;11819;51.394;12.340;2022-08-21T15:27:03;32.20;44.20
23301;DHT22;11819;51.394;12.340;2022-08-21T15:29:30;32.30;44.10
23301;DHT22;11819;51.394;12.340;2022-08-21T15:32:00;32.40;43.70
23301;DHT22;11819;51.394;12.340;2022-08-21T15:34:27;32.40;43.50
23301;DHT22;11819;51.394;12.340;2022-08-21T15:36:56;32.50;43.30
23301;DHT22;11819;51.394;12.340;2022-08-21T15:39:24;32.60;43.10
23301;DHT22;11819;51.394;12.340;2022-08-21T15:41:50;32.60;43.00
23301;DHT22;11819;51.394;12.340;2022-08-21T15:44:16;32.60;42.90
23301;DHT22;11819;51.394;12.340;2022-08-21T15:46:42;32.70;42.70
23301;DHT22;11819;51.394;12.340;2022-08-21T15:49:10;32.70;42.70
23301;DHT22;11819;51.394;12.340;2022-08-21T15:51:36;32.70;42.80
23301;DHT22;11819;51.394;12.340;2022-08-21T15:54:02;32.70;42.70
23301;DHT22;11819;51.394;12.340;2022-08-21T15:56:37;32.50;42.40
23301;DHT22;11819;51.394;12.340;2022-08-21T15:59:07;32.10;42.00
23301;DHT22;11819;51.394;12.340;2022-08-21T16:01:34;31.70;42.10
23301;DHT22;11819;51.394;12.340;2022-08-21T16:04:02;31.30;42.30
23301;DHT22;11819;51.394;12.340;2022-08-21T16:06:29;30.80;42.40
23301;DHT22;11819;51.394;12.340;2022-08-21T16:08:54;30.50;42.70
23301;DHT22;11819;51.394;12.340;2022-08-21T16:11:20;30.10;42.90
23301;DHT22;11819;51.394;12.340;2022-08-21T16:13:46;29.80;43.20
23301;DHT22;11819;51.394;12.340;2022-08-21T16:16:18;29.50;43.50
23301;DHT22;11819;51.394;12.340;2022-08-21T16:18:44;29.30;44.00
23301;DHT22;11819;51.394;12.340;2022-08-21T16:21:10;29.00;44.60
23301;DHT22;11819;51.394;12.340;2022-08-21T16:23:36;28.80;44.70